Terminal Aerodrome Forecast
Issued by NWS

Home | Current Version | Previous Version | Text Only | Print | Product List | Glossary On
Versions: 1 2 3 4 5 6 7 8 9 10 11 12 13 14 15 16 17 18 19
000
FTUS46 KLOX 311733
TAFSBP
TAF
KSBP 311733Z 3118/0118 31012KT P6SM SKC
     FM312100 30015G22KT P6SM SKC
     FM010300 30010KT P6SM SKC
     FM010800 VRB03KT P6SM OVC007=

USA.gov is the U.S. government's official web portal to all federal, state and local government web resources and services.